sensor_id;sensor_type;location;lat;lon;timestamp;pressure;altitude;pressure_sealevel;temperature;humidity
498;BME280;39559;48.630;9.162;2023-04-09T00:01:39;98109.81;;;4.25;100.00
498;BME280;39559;48.630;9.162;2023-04-09T00:04:04;98108.94;;;4.26;100.00
498;BME280;39559;48.630;9.162;2023-04-09T00:06:30;98109.75;;;4.34;100.00
498;BME280;39559;48.630;9.162;2023-04-09T00:08:56;98104.59;;;4.32;100.00
498;BME280;39559;48.630;9.162;2023-04-09T00:11:21;98109.69;;;4.40;100.00
498;BME280;39559;48.630;9.162;2023-04-09T00:13:47;98104.63;;;4.31;100.00
498;BME280;39559;48.630;9.162;2023-04-09T00:16:12;98112.25;;;4.43;100.00
498;BME280;39559;48.630;9.162;2023-04-09T00:18:38;98114.97;;;4.23;100.00
498;BME280;39559;48.630;9.162;2023-04-09T00:23:12;98107.31;;;4.11;100.00
498;BME280;39559;48.630;9.162;2023-04-09T00:25:38;98104.81;;;4.06;100.00
498;BME280;39559;48.630;9.162;2023-04-09T00:28:04;98101.41;;;4.01;100.00
498;BME280;39559;48.630;9.162;2023-04-09T00:30:30;98104.81;;;4.03;100.00
498;BME280;39559;48.630;9.162;2023-04-09T00:32:56;98099.59;;;4.17;100.00
498;BME280;39559;48.630;9.162;2023-04-09T00:35:21;98096.97;;;4.23;100.00
498;BME280;39559;48.630;9.162;2023-04-09T00:37:47;98099.56;;;4.20;100.00
498;BME280;39559;48.630;9.162;2023-04-09T00:40:13;98096.19;;;4.13;100.00
498;BME280;39559;48.630;9.162;2023-04-09T00:42:38;98092.72;;;4.17;100.00
498;BME280;39559;48.630;9.162;2023-04-09T00:47:12;98094.34;;;4.31;100.00
498;BME280;39559;48.630;9.162;2023-04-09T00:49:37;98096.03;;;4.35;100.00
498;BME280;39559;48.630;9.162;2023-04-09T00:52:03;98100.28;;;4.39;100.00
498;BME280;39559;48.630;9.162;2023-04-09T00:54:29;98091.75;;;4.34;100.00
498;BME280;39559;48.630;9.162;2023-04-09T00:56:56;98096.88;;;4.35;100.00
498;BME280;39559;48.630;9.162;2023-04-09T00:59:23;98094.31;;;4.35;100.00
498;BME280;39559;48.630;9.162;2023-04-09T01:01:49;98095.22;;;4.25;100.00
498;BME280;39559;48.630;9.162;2023-04-09T01:04:15;98097.88;;;4.17;100.00
498;BME280;39559;48.630;9.162;2023-04-09T01:06:50;98091.81;;;4.26;100.00
498;BME280;39559;48.630;9.162;2023-04-09T01:14:11;98094.31;;;4.32;100.00
498;BME280;39559;48.630;9.162;2023-04-09T01:16:41;98090.03;;;4.34;100.00
498;BME280;39559;48.630;9.162;2023-04-09T01:19:18;98089.94;;;4.43;100.00
498;BME280;39559;48.630;9.162;2023-04-09T01:21:48;98084.94;;;4.28;100.00
498;BME280;39559;48.630;9.162;2023-04-09T01:24:35;98100.63;;;3.91;100.00
498;BME280;39559;48.630;9.162;2023-04-09T01:27:07;98097.16;;;3.94;100.00
498;BME280;39559;48.630;9.162;2023-04-09T01:29:38;98094.47;;;4.11;100.00
498;BME280;39559;48.630;9.162;2023-04-09T01:32:06;98091.00;;;4.19;100.00
498;BME280;39559;48.630;9.162;2023-04-09T01:35:11;98099.44;;;4.37;100.00
498;BME280;39559;48.630;9.162;2023-04-09T01:37:37;98087.50;;;4.30;100.00
498;BME280;39559;48.630;9.162;2023-04-09T01:40:06;98091.84;;;4.20;100.00
498;BME280;39559;48.630;9.162;2023-04-09T01:42:32;98094.38;;;4.25;100.00
498;BME280;39559;48.630;9.162;2023-04-09T01:44:58;98097.88;;;4.17;100.00
498;BME280;39559;48.630;9.162;2023-04-09T01:47:26;98097.03;;;4.17;100.00
498;BME280;39559;48.630;9.162;2023-04-09T01:49:52;98099.59;;;4.15;100.00
498;BME280;39559;48.630;9.162;2023-04-09T01:52:18;98097.09;;;4.03;100.00
498;BME280;39559;48.630;9.162;2023-04-09T01:54:44;98096.25;;;4.04;100.00
498;BME280;39559;48.630;9.162;2023-04-09T01:59:10;98099.72;;;3.97;100.00
498;BME280;39559;48.630;9.162;2023-04-09T02:02:07;98099.00;;;3.72;100.00
498;BME280;39559;48.630;9.162;2023-04-09T02:04:43;98101.63;;;3.64;100.00
498;BME280;39559;48.630;9.162;2023-04-09T02:09:44;98094.59;;;3.91;100.00
498;BME280;39559;48.630;9.162;2023-04-09T02:12:13;98098.97;;;3.81;100.00
498;BME280;39559;48.630;9.162;2023-04-09T02:14:39;98098.16;;;3.70;100.00
498;BME280;39559;48.630;9.162;2023-04-09T02:17:05;98093.81;;;3.81;100.00
498;BME280;39559;48.630;9.162;2023-04-09T02:19:41;98095.44;;;3.94;100.00
498;BME280;39559;48.630;9.162;2023-04-09T02:23:09;98094.53;;;4.00;100.00
498;BME280;39559;48.630;9.162;2023-04-09T02:25:35;98090.28;;;3.99;100.00
498;BME280;39559;48.630;9.162;2023-04-09T02:28:00;98081.75;;;3.92;100.00
498;BME280;39559;48.630;9.162;2023-04-09T02:30:26;98089.50;;;3.86;100.00
498;BME280;39559;48.630;9.162;2023-04-09T02:32:51;98087.91;;;3.71;100.00
498;BME280;39559;48.630;9.162;2023-04-09T02:35:16;98086.19;;;3.67;100.00
498;BME280;39559;48.630;9.162;2023-04-09T02:37:42;98084.56;;;3.52;100.00
498;BME280;39559;48.630;9.162;2023-04-09T02:40:08;98090.56;;;3.51;100.00
498;BME280;39559;48.630;9.162;2023-04-09T02:42:34;98088.84;;;3.49;100.00
498;BME280;39559;48.630;9.162;2023-04-09T02:47:09;98085.50;;;3.28;100.00
498;BME280;39559;48.630;9.162;2023-04-09T02:49:34;98087.22;;;3.31;100.00
498;BME280;39559;48.630;9.162;2023-04-09T02:52:00;98088.03;;;3.40;100.00
498;BME280;39559;48.630;9.162;2023-04-09T02:54:26;98082.03;;;3.46;100.00
498;BME280;39559;48.630;9.162;2023-04-09T02:56:51;98080.28;;;3.48;100.00
498;BME280;39559;48.630;9.162;2023-04-09T02:59:17;98079.47;;;3.46;100.00
498;BME280;39559;48.630;9.162;2023-04-09T03:01:42;98085.44;;;3.46;100.00
498;BME280;39559;48.630;9.162;2023-04-09T03:04:08;98087.25;;;3.26;100.00
498;BME280;39559;48.630;9.162;2023-04-09T03:06:33;98087.19;;;3.37;100.00
498;BME280;39559;48.630;9.162;2023-04-09T03:11:08;98077.72;;;3.51;100.00
498;BME280;39559;48.630;9.162;2023-04-09T03:13:34;98074.31;;;3.48;100.00
498;BME280;39559;48.630;9.162;2023-04-09T03:15:59;98079.47;;;3.44;100.00
498;BME280;39559;48.630;9.162;2023-04-09T03:18:25;98081.97;;;3.49;100.00
498;BME280;39559;48.630;9.162;2023-04-09T03:20:50;98080.25;;;3.60;100.00
498;BME280;39559;48.630;9.162;2023-04-09T03:23:16;98079.47;;;3.44;100.00
498;BME280;39559;48.630;9.162;2023-04-09T03:25:42;98080.34;;;3.39;100.00
498;BME280;39559;48.630;9.162;2023-04-09T03:28:07;98075.22;;;3.39;100.00
498;BME280;39559;48.630;9.162;2023-04-09T03:30:33;98073.53;;;3.29;100.00
498;BME280;39559;48.630;9.162;2023-04-09T03:35:08;98076.94;;;3.34;100.00
498;BME280;39559;48.630;9.162;2023-04-09T03:37:33;98073.50;;;3.38;100.00
498;BME280;39559;48.630;9.162;2023-04-09T03:39:59;98077.78;;;3.39;100.00
498;BME280;39559;48.630;9.162;2023-04-09T03:42:26;98073.44;;;3.49;100.00
498;BME280;39559;48.630;9.162;2023-04-09T03:44:53;98075.16;;;3.48;100.00
498;BME280;39559;48.630;9.162;2023-04-09T03:47:19;98074.28;;;3.54;100.00
498;BME280;39559;48.630;9.162;2023-04-09T03:49:44;98070.88;;;3.52;100.00
498;BME280;39559;48.630;9.162;2023-04-09T03:52:10;98070.88;;;3.49;100.00
498;BME280;39559;48.630;9.162;2023-04-09T03:54:35;98070.00;;;3.53;100.00
498;BME280;39559;48.630;9.162;2023-04-09T03:59:07;98066.53;;;3.58;100.00
498;BME280;39559;48.630;9.162;2023-04-09T04:01:33;98068.25;;;3.56;100.00
498;BME280;39559;48.630;9.162;2023-04-09T04:03:59;98064.84;;;3.56;100.00
498;BME280;39559;48.630;9.162;2023-04-09T04:06:24;98063.97;;;3.60;100.00
498;BME280;39559;48.630;9.162;2023-04-09T04:08:51;98067.47;;;3.50;100.00
498;BME280;39559;48.630;9.162;2023-04-09T04:11:17;98062.31;;;3.50;100.00
498;BME280;39559;48.630;9.162;2023-04-09T04:13:42;98074.31;;;3.41;100.00
498;BME280;39559;48.630;9.162;2023-04-09T04:16:08;98071.69;;;3.57;100.00
498;BME280;39559;48.630;9.162;2023-04-09T04:18:35;98076.88;;;3.48;100.00
498;BME280;39559;48.630;9.162;2023-04-09T04:23:07;98080.34;;;3.39;100.00
498;BME280;39559;48.630;9.162;2023-04-09T04:25:33;98078.66;;;3.33;100.00
498;BME280;39559;48.630;9.162;2023-04-09T04:27:59;98078.63;;;3.39;100.00
498;BME280;39559;48.630;9.162;2023-04-09T04:30:24;98081.31;;;3.08;100.00
498;BME280;39559;48.630;9.162;2023-04-09T04:32:50;98089.00;;;3.07;100.00
498;BME280;39559;48.630;9.162;2023-04-09T04:35:15;98083.84;;;3.18;100.00
498;BME280;39559;48.630;9.162;2023-04-09T04:37:41;98081.25;;;3.24;100.00
498;BME280;39559;48.630;9.162;2023-04-09T04:40:07;98079.53;;;3.24;100.00
498;BME280;39559;48.630;9.162;2023-04-09T04:42:33;98088.94;;;3.30;100.00
498;BME280;39559;48.630;9.162;2023-04-09T04:47:07;98087.19;;;3.35;100.00
498;BME280;39559;48.630;9.162;2023-04-09T04:49:32;98089.72;;;3.38;100.00
498;BME280;39559;48.630;9.162;2023-04-09T04:51:58;98086.41;;;3.24;100.00
498;BME280;39559;48.630;9.162;2023-04-09T04:54:23;98094.94;;;3.20;100.00
498;BME280;39559;48.630;9.162;2023-04-09T04:56:49;98093.22;;;3.25;100.00
498;BME280;39559;48.630;9.162;2023-04-09T04:59:15;98095.81;;;3.13;100.00
498;BME280;39559;48.630;9.162;2023-04-09T05:01:40;98088.19;;;3.00;100.00
498;BME280;39559;48.630;9.162;2023-04-09T05:04:06;98096.75;;;2.92;100.00
498;BME280;39559;48.630;9.162;2023-04-09T05:06:31;98101.88;;;2.90;100.00
498;BME280;39559;48.630;9.162;2023-04-09T05:11:10;98093.28;;;3.05;100.00
498;BME280;39559;48.630;9.162;2023-04-09T05:13:36;98097.53;;;3.12;100.00
498;BME280;39559;48.630;9.162;2023-04-09T05:16:01;98096.72;;;2.99;100.00
498;BME280;39559;48.630;9.162;2023-04-09T05:18:28;98089.00;;;3.13;100.00
498;BME280;39559;48.630;9.162;2023-04-09T05:20:53;98089.81;;;3.28;100.00
498;BME280;39559;48.630;9.162;2023-04-09T05:23:19;98088.09;;;3.26;100.00
498;BME280;39559;48.630;9.162;2023-04-09T05:25:44;98091.56;;;3.12;100.00
498;BME280;39559;48.630;9.162;2023-04-09T05:28:12;98091.53;;;3.21;100.00
498;BME280;39559;48.630;9.162;2023-04-09T05:30:38;98093.22;;;3.31;100.00
498;BME280;39559;48.630;9.162;2023-04-09T05:35:06;98092.28;;;3.44;100.00
498;BME280;39559;48.630;9.162;2023-04-09T05:37:32;98090.63;;;3.33;100.00
498;BME280;39559;48.630;9.162;2023-04-09T05:39:58;98090.56;;;3.45;100.00
498;BME280;39559;48.630;9.162;2023-04-09T05:42:23;98086.22;;;3.59;100.00
498;BME280;39559;48.630;9.162;2023-04-09T05:44:49;98094.78;;;3.64;100.00
498;BME280;39559;48.630;9.162;2023-04-09T05:47:15;98099.81;;;3.81;100.00
498;BME280;39559;48.630;9.162;2023-04-09T05:49:40;98096.38;;;3.82;100.00
498;BME280;39559;48.630;9.162;2023-04-09T05:52:06;98095.50;;;3.85;100.00
498;BME280;39559;48.630;9.162;2023-04-09T05:54:31;98089.69;;;3.57;100.00
498;BME280;39559;48.630;9.162;2023-04-09T05:59:06;98089.41;;;4.01;100.00
498;BME280;39559;48.630;9.162;2023-04-09T06:01:32;98100.44;;;4.14;100.00
498;BME280;39559;48.630;9.162;2023-04-09T06:03:57;98095.97;;;4.39;100.00
498;BME280;39559;48.630;9.162;2023-04-09T06:06:23;98098.63;;;4.33;100.00
498;BME280;39559;48.630;9.162;2023-04-09T06:08:49;98103.78;;;4.26;100.00
498;BME280;39559;48.630;9.162;2023-04-09T06:11:14;98106.25;;;4.42;100.00
498;BME280;39559;48.630;9.162;2023-04-09T06:13:40;98101.25;;;4.24;100.00
498;BME280;39559;48.630;9.162;2023-04-09T06:16:06;98101.34;;;4.07;100.00
498;BME280;39559;48.630;9.162;2023-04-09T06:18:33;98102.25;;;4.00;100.00
498;BME280;39559;48.630;9.162;2023-04-09T06:23:06;98107.91;;;4.50;100.00
498;BME280;39559;48.630;9.162;2023-04-09T06:25:32;98098.91;;;4.94;100.00
498;BME280;39559;48.630;9.162;2023-04-09T06:27:57;98099.53;;;5.16;100.00
498;BME280;39559;48.630;9.162;2023-04-09T06:30:23;98089.00;;;5.36;100.00
498;BME280;39559;48.630;9.162;2023-04-09T06:32:49;98089.56;;;5.63;100.00
498;BME280;39559;48.630;9.162;2023-04-09T06:35:15;98095.22;;;5.88;100.00
498;BME280;39559;48.630;9.162;2023-04-09T06:37:40;98095.25;;;5.86;100.00
498;BME280;39559;48.630;9.162;2023-04-09T06:40:06;98091.75;;;5.89;100.00
498;BME280;39559;48.630;9.162;2023-04-09T06:42:33;98095.91;;;6.02;100.00
498;BME280;39559;48.630;9.162;2023-04-09T06:47:06;98089.84;;;6.61;100.00
498;BME280;39559;48.630;9.162;2023-04-09T06:49:33;98098.72;;;6.44;100.00
498;BME280;39559;48.630;9.162;2023-04-09T06:51:58;98102.19;;;6.42;100.00
498;BME280;39559;48.630;9.162;2023-04-09T06:54:24;98102.50;;;6.22;100.00
498;BME280;39559;48.630;9.162;2023-04-09T06:56:50;98105.66;;;6.41;100.00
498;BME280;39559;48.630;9.162;2023-04-09T06:59:16;98101.75;;;6.68;100.00
498;BME280;39559;48.630;9.162;2023-04-09T07:01:41;98109.88;;;6.95;100.00
498;BME280;39559;48.630;9.162;2023-04-09T07:04:07;98109.31;;;6.79;100.00
498;BME280;39559;48.630;9.162;2023-04-09T07:06:36;98100.44;;;6.94;100.00
498;BME280;39559;48.630;9.162;2023-04-09T07:11:07;98103.53;;;7.13;100.00
498;BME280;39559;48.630;9.162;2023-04-09T07:13:33;98099.06;;;7.22;100.00
498;BME280;39559;48.630;9.162;2023-04-09T07:15:59;98104.66;;;7.44;100.00
498;BME280;39559;48.630;9.162;2023-04-09T07:18:24;98103.28;;;7.26;100.00
498;BME280;39559;48.630;9.162;2023-04-09T07:20:51;98107.72;;;7.20;100.00
498;BME280;39559;48.630;9.162;2023-04-09T07:23:18;98110.56;;;7.06;100.00
498;BME280;39559;48.630;9.162;2023-04-09T07:25:43;98114.66;;;7.16;100.00
498;BME280;39559;48.630;9.162;2023-04-09T07:28:09;98102.72;;;7.54;100.00
498;BME280;39559;48.630;9.162;2023-04-09T07:30:36;98103.00;;;7.40;100.00
498;BME280;39559;48.630;9.162;2023-04-09T07:35:07;98098.47;;;7.92;100.00
498;BME280;39559;48.630;9.162;2023-04-09T07:37:34;98102.66;;;7.98;100.00
498;BME280;39559;48.630;9.162;2023-04-09T07:40:00;98104.34;;;7.58;100.00
498;BME280;39559;48.630;9.162;2023-04-09T07:42:28;98109.84;;;7.85;100.00
498;BME280;39559;48.630;9.162;2023-04-09T07:44:54;98114.13;;;7.86;100.00
498;BME280;39559;48.630;9.162;2023-04-09T07:47:22;98112.97;;;7.99;100.00
498;BME280;39559;48.630;9.162;2023-04-09T07:49:47;98113.84;;;8.37;100.00
498;BME280;39559;48.630;9.162;2023-04-09T07:52:13;98115.88;;;8.24;97.49
498;BME280;39559;48.630;9.162;2023-04-09T07:54:39;98113.97;;;8.31;99.75
498;BME280;39559;48.630;9.162;2023-04-09T07:59:06;98122.16;;;8.52;93.92
498;BME280;39559;48.630;9.162;2023-04-09T08:01:31;98126.59;;;8.82;92.08
498;BME280;39559;48.630;9.162;2023-04-09T08:03:57;98127.69;;;8.35;88.69
498;BME280;39559;48.630;9.162;2023-04-09T08:06:22;98131.00;;;8.41;93.00
498;BME280;39559;48.630;9.162;2023-04-09T08:08:48;98122.19;;;8.86;95.96
498;BME280;39559;48.630;9.162;2023-04-09T08:11:13;98125.72;;;8.82;92.44
498;BME280;39559;48.630;9.162;2023-04-09T08:13:39;98121.13;;;8.93;93.01
498;BME280;39559;48.630;9.162;2023-04-09T08:16:05;98115.84;;;8.62;85.41
498;BME280;39559;48.630;9.162;2023-04-09T08:18:31;98122.25;;;8.47;87.07
498;BME280;39559;48.630;9.162;2023-04-09T08:23:05;98121.47;;;9.14;81.95
498;BME280;39559;48.630;9.162;2023-04-09T08:25:31;98115.16;;;9.24;81.28
498;BME280;39559;48.630;9.162;2023-04-09T08:27:57;98129.09;;;9.18;80.53
498;BME280;39559;48.630;9.162;2023-04-09T08:30:22;98128.03;;;9.26;73.36
498;BME280;39559;48.630;9.162;2023-04-09T08:32:48;98124.09;;;9.44;76.16
498;BME280;39559;48.630;9.162;2023-04-09T08:35:13;98122.91;;;9.55;69.71
498;BME280;39559;48.630;9.162;2023-04-09T08:37:39;98130.38;;;9.35;68.69
498;BME280;39559;48.630;9.162;2023-04-09T08:40:05;98122.44;;;9.10;72.39
498;BME280;39559;48.630;9.162;2023-04-09T08:42:33;98128.97;;;9.54;73.58
498;BME280;39559;48.630;9.162;2023-04-09T08:47:08;98134.25;;;9.51;69.52
498;BME280;39559;48.630;9.162;2023-04-09T08:49:39;98135.94;;;8.88;71.98
498;BME280;39559;48.630;9.162;2023-04-09T08:52:06;98135.63;;;9.65;70.97
498;BME280;39559;48.630;9.162;2023-04-09T08:54:32;98134.13;;;10.15;67.53
498;BME280;39559;48.630;9.162;2023-04-09T08:56:58;98140.81;;;9.65;66.81
498;BME280;39559;48.630;9.162;2023-04-09T08:59:23;98146.00;;;9.33;66.73
498;BME280;39559;48.630;9.162;2023-04-09T09:02:06;98147.69;;;9.34;71.52
498;BME280;39559;48.630;9.162;2023-04-09T09:04:48;98152.78;;;9.37;71.22
498;BME280;39559;48.630;9.162;2023-04-09T09:07:15;98141.16;;;9.82;72.35
498;BME280;39559;48.630;9.162;2023-04-09T09:11:05;98145.59;;;9.78;69.37
498;BME280;39559;48.630;9.162;2023-04-09T09:13:31;98146.34;;;9.19;70.57
498;BME280;39559;48.630;9.162;2023-04-09T09:16:13;98150.16;;;9.06;69.81
498;BME280;39559;48.630;9.162;2023-04-09T09:18:41;98145.16;;;9.31;71.54
498;BME280;39559;48.630;9.162;2023-04-09T09:21:15;98144.97;;;9.06;68.97
498;BME280;39559;48.630;9.162;2023-04-09T09:23:42;98150.34;;;9.31;67.36
498;BME280;39559;48.630;9.162;2023-04-09T09:26:20;98131.88;;;9.44;66.02
498;BME280;39559;48.630;9.162;2023-04-09T09:28:47;98138.94;;;9.06;67.67
498;BME280;39559;48.630;9.162;2023-04-09T09:31:14;98146.31;;;8.88;71.82
498;BME280;39559;48.630;9.162;2023-04-09T09:35:05;98144.91;;;9.08;71.63
498;BME280;39559;48.630;9.162;2023-04-09T09:37:32;98158.94;;;9.00;71.50
498;BME280;39559;48.630;9.162;2023-04-09T09:39:59;98145.59;;;9.16;68.82
498;BME280;39559;48.630;9.162;2023-04-09T09:42:25;98152.00;;;9.02;69.95
498;BME280;39559;48.630;9.162;2023-04-09T09:44:55;98145.94;;;9.02;69.18
498;BME280;39559;48.630;9.162;2023-04-09T09:47:21;98148.06;;;9.20;69.33
498;BME280;39559;48.630;9.162;2023-04-09T09:49:48;98147.47;;;8.75;67.94
498;BME280;39559;48.630;9.162;2023-04-09T09:52:15;98155.88;;;9.19;66.29
498;BME280;39559;48.630;9.162;2023-04-09T09:54:43;98147.38;;;9.45;66.92
498;BME280;39559;48.630;9.162;2023-04-09T09:59:15;98138.22;;;9.94;62.84
498;BME280;39559;48.630;9.162;2023-04-09T10:01:42;98141.78;;;9.90;63.07
498;BME280;39559;48.630;9.162;2023-04-09T10:04:13;98140.47;;;10.63;62.63
498;BME280;39559;48.630;9.162;2023-04-09T10:06:42;98131.06;;;10.86;61.34
498;BME280;39559;48.630;9.162;2023-04-09T10:09:09;98126.56;;;10.91;60.58
498;BME280;39559;48.630;9.162;2023-04-09T10:11:36;98132.88;;;11.09;60.63
498;BME280;39559;48.630;9.162;2023-04-09T10:14:03;98137.34;;;11.79;59.54
498;BME280;39559;48.630;9.162;2023-04-09T10:16:30;98131.38;;;12.45;58.12
498;BME280;39559;48.630;9.162;2023-04-09T10:18:57;98134.06;;;12.64;58.02
498;BME280;39559;48.630;9.162;2023-04-09T10:23:09;98135.53;;;12.49;58.07
498;BME280;39559;48.630;9.162;2023-04-09T10:25:36;98130.31;;;11.81;54.39
498;BME280;39559;48.630;9.162;2023-04-09T10:28:02;98131.03;;;11.61;55.43
498;BME280;39559;48.630;9.162;2023-04-09T10:30:39;98131.78;;;10.36;55.25
498;BME280;39559;48.630;9.162;2023-04-09T10:33:09;98127.47;;;10.90;54.79
498;BME280;39559;48.630;9.162;2023-04-09T10:35:35;98130.13;;;10.88;54.84
498;BME280;39559;48.630;9.162;2023-04-09T10:38:02;98123.78;;;11.46;52.09
498;BME280;39559;48.630;9.162;2023-04-09T10:40:27;98132.50;;;11.94;54.94
498;BME280;39559;48.630;9.162;2023-04-09T10:42:57;98133.34;;;11.94;49.61
498;BME280;39559;48.630;9.162;2023-04-09T10:47:02;98133.16;;;11.01;52.94
498;BME280;39559;48.630;9.162;2023-04-09T10:49:35;98143.63;;;9.87;51.28
498;BME280;39559;48.630;9.162;2023-04-09T10:52:03;98126.59;;;10.36;51.73
498;BME280;39559;48.630;9.162;2023-04-09T10:59:36;98128.03;;;12.19;47.67
498;BME280;39559;48.630;9.162;2023-04-09T11:02:02;98127.53;;;11.86;48.57
498;BME280;39559;48.630;9.162;2023-04-09T11:04:40;98134.09;;;11.24;47.87
498;BME280;39559;48.630;9.162;2023-04-09T11:07:14;98121.81;;;11.52;51.94
498;BME280;39559;48.630;9.162;2023-04-09T11:11:01;98120.31;;;11.94;49.77
498;BME280;39559;48.630;9.162;2023-04-09T11:13:29;98117.13;;;11.62;52.50
498;BME280;39559;48.630;9.162;2023-04-09T11:15:55;98125.00;;;11.84;50.08
498;BME280;39559;48.630;9.162;2023-04-09T11:18:25;98125.47;;;10.45;55.75
498;BME280;39559;48.630;9.162;2023-04-09T11:20:59;98121.50;;;10.33;51.49
498;BME280;39559;48.630;9.162;2023-04-09T11:23:25;98124.75;;;10.93;53.63
498;BME280;39559;48.630;9.162;2023-04-09T11:25:52;98109.75;;;12.21;49.58
498;BME280;39559;48.630;9.162;2023-04-09T11:28:19;98117.19;;;11.37;48.50
498;BME280;39559;48.630;9.162;2023-04-09T11:30:45;98115.59;;;11.57;50.79
498;BME280;39559;48.630;9.162;2023-04-09T11:34:59;98116.78;;;12.41;48.76
498;BME280;39559;48.630;9.162;2023-04-09T11:37:25;98106.34;;;12.83;48.10
498;BME280;39559;48.630;9.162;2023-04-09T11:39:52;98100.03;;;13.51;48.35
498;BME280;39559;48.630;9.162;2023-04-09T11:42:19;98100.44;;;13.21;48.70
498;BME280;39559;48.630;9.162;2023-04-09T11:44:47;98103.09;;;12.78;47.46
498;BME280;39559;48.630;9.162;2023-04-09T11:47:14;98100.94;;;13.50;49.70
498;BME280;39559;48.630;9.162;2023-04-09T11:49:42;98105.91;;;12.74;47.30
498;BME280;39559;48.630;9.162;2023-04-09T11:52:08;98099.25;;;12.66;48.11
498;BME280;39559;48.630;9.162;2023-04-09T11:54:35;98097.47;;;12.24;50.17
498;BME280;39559;48.630;9.162;2023-04-09T11:58:58;98102.50;;;13.13;47.47
498;BME280;39559;48.630;9.162;2023-04-09T12:01:23;98103.22;;;12.10;49.32
498;BME280;39559;48.630;9.162;2023-04-09T12:03:53;98096.19;;;12.13;50.54
498;BME280;39559;48.630;9.162;2023-04-09T12:06:22;98107.13;;;11.75;47.63
498;BME280;39559;48.630;9.162;2023-04-09T12:08:57;98101.75;;;12.03;49.31
498;BME280;39559;48.630;9.162;2023-04-09T12:11:29;98098.47;;;13.05;50.25
498;BME280;39559;48.630;9.162;2023-04-09T12:14:00;98097.03;;;14.34;45.13
498;BME280;39559;48.630;9.162;2023-04-09T12:16:29;98093.81;;;13.53;47.82
498;BME280;39559;48.630;9.162;2023-04-09T12:19:04;98094.97;;;14.41;48.00
498;BME280;39559;48.630;9.162;2023-04-09T12:22:56;98099.31;;;12.85;46.65
498;BME280;39559;48.630;9.162;2023-04-09T12:25:21;98089.53;;;12.70;48.43
498;BME280;39559;48.630;9.162;2023-04-09T12:27:47;98091.75;;;12.37;50.52
498;BME280;39559;48.630;9.162;2023-04-09T12:30:13;98096.63;;;11.77;49.96
498;BME280;39559;48.630;9.162;2023-04-09T12:32:38;98088.97;;;11.74;51.29
498;BME280;39559;48.630;9.162;2023-04-09T12:35:04;98091.78;;;11.91;51.10
498;BME280;39559;48.630;9.162;2023-04-09T12:37:30;98085.44;;;11.75;50.49
498;BME280;39559;48.630;9.162;2023-04-09T12:39:55;98086.84;;;12.07;51.18
498;BME280;39559;48.630;9.162;2023-04-09T12:42:21;98077.22;;;13.15;48.06
498;BME280;39559;48.630;9.162;2023-04-09T12:46:53;98072.19;;;12.69;49.12
498;BME280;39559;48.630;9.162;2023-04-09T12:49:19;98065.16;;;14.45;53.10
498;BME280;39559;48.630;9.162;2023-04-09T12:51:45;98056.75;;;14.57;46.10
498;BME280;39559;48.630;9.162;2023-04-09T12:54:11;98059.50;;;16.21;43.47
498;BME280;39559;48.630;9.162;2023-04-09T12:56:36;98049.25;;;16.63;40.24
498;BME280;39559;48.630;9.162;2023-04-09T12:59:02;98053.31;;;15.74;47.46
498;BME280;39559;48.630;9.162;2023-04-09T13:01:28;98053.94;;;15.80;41.40
498;BME280;39559;48.630;9.162;2023-04-09T13:03:53;98052.44;;;14.20;42.41
498;BME280;39559;48.630;9.162;2023-04-09T13:06:19;98056.59;;;13.69;45.14
498;BME280;39559;48.630;9.162;2023-04-09T13:10:51;98046.63;;;15.20;43.37
498;BME280;39559;48.630;9.162;2023-04-09T13:13:17;98042.47;;;14.65;44.38
498;BME280;39559;48.630;9.162;2023-04-09T13:15:42;98043.19;;;15.35;43.34
498;BME280;39559;48.630;9.162;2023-04-09T13:18:12;98034.13;;;16.22;41.41
498;BME280;39559;48.630;9.162;2023-04-09T13:20:38;98025.78;;;16.45;41.23
498;BME280;39559;48.630;9.162;2023-04-09T13:23:04;98034.00;;;15.77;41.75
498;BME280;39559;48.630;9.162;2023-04-09T13:25:30;98023.16;;;16.76;39.97
498;BME280;39559;48.630;9.162;2023-04-09T13:27:55;98029.59;;;16.40;39.57
498;BME280;39559;48.630;9.162;2023-04-09T13:30:21;98028.41;;;15.01;40.78
498;BME280;39559;48.630;9.162;2023-04-09T13:34:49;98032.38;;;15.25;41.07
498;BME280;39559;48.630;9.162;2023-04-09T13:37:15;98018.91;;;16.28;41.24
498;BME280;39559;48.630;9.162;2023-04-09T13:39:42;98012.34;;;17.11;40.46
498;BME280;39559;48.630;9.162;2023-04-09T13:42:08;98012.19;;;15.77;42.65
498;BME280;39559;48.630;9.162;2023-04-09T13:44:33;98026.91;;;14.08;40.54
498;BME280;39559;48.630;9.162;2023-04-09T13:46:59;98011.13;;;14.81;42.82
498;BME280;39559;48.630;9.162;2023-04-09T13:49:25;98019.56;;;13.41;42.12
498;BME280;39559;48.630;9.162;2023-04-09T13:51:51;98012.63;;;14.15;43.88
498;BME280;39559;48.630;9.162;2023-04-09T13:54:17;98009.34;;;14.29;42.86
498;BME280;39559;48.630;9.162;2023-04-09T13:58:45;98006.50;;;15.03;41.50
498;BME280;39559;48.630;9.162;2023-04-09T14:01:21;98008.06;;;14.37;42.32
498;BME280;39559;48.630;9.162;2023-04-09T14:03:48;98007.28;;;13.81;42.86
498;BME280;39559;48.630;9.162;2023-04-09T14:06:13;98004.41;;;13.69;42.40
498;BME280;39559;48.630;9.162;2023-04-09T14:08:39;97992.44;;;14.53;42.42
498;BME280;39559;48.630;9.162;2023-04-09T14:11:05;97990.22;;;14.46;42.27
498;BME280;39559;48.630;9.162;2023-04-09T14:13:30;97996.81;;;14.53;43.30
498;BME280;39559;48.630;9.162;2023-04-09T14:15:56;97985.03;;;14.96;42.16
498;BME280;39559;48.630;9.162;2023-04-09T14:18:22;97981.41;;;14.66;43.12
498;BME280;39559;48.630;9.162;2023-04-09T14:22:42;97978.50;;;14.00;42.03
498;BME280;39559;48.630;9.162;2023-04-09T14:25:13;97993.28;;;13.06;42.13
498;BME280;39559;48.630;9.162;2023-04-09T14:27:38;97990.72;;;13.05;43.54
498;BME280;39559;48.630;9.162;2023-04-09T14:30:04;97991.88;;;13.18;45.88
498;BME280;39559;48.630;9.162;2023-04-09T14:32:32;97986.59;;;12.80;44.38
498;BME280;39559;48.630;9.162;2023-04-09T14:34:57;97986.69;;;12.98;46.86
498;BME280;39559;48.630;9.162;2023-04-09T14:37:23;97987.31;;;12.84;45.47
498;BME280;39559;48.630;9.162;2023-04-09T14:39:48;97974.00;;;13.49;45.98